sensor_id;sensor_type;location;lat;lon;timestamp;pressure;altitude;pressure_sealevel;temperature;humidity
6532;BME280;3299;42.004;24.868;2023-04-07T00:01:54;98010.81;;;8.53;43.39
6532;BME280;3299;42.004;24.868;2023-04-07T00:04:19;97973.38;;;8.35;42.75
6532;BME280;3299;42.004;24.868;2023-04-07T00:06:45;97981.84;;;8.49;42.87
6532;BME280;3299;42.004;24.868;2023-04-07T00:09:10;97989.88;;;8.57;42.70
6532;BME280;3299;42.004;24.868;2023-04-07T00:11:36;97920.34;;;8.18;42.78
6532;BME280;3299;42.004;24.868;2023-04-07T00:14:02;97960.69;;;8.44;42.46
6532;BME280;3299;42.004;24.868;2023-04-07T00:16:27;98021.66;;;8.70;43.14
6532;BME280;3299;42.004;24.868;2023-04-07T00:18:53;97980.69;;;8.41;43.75
6532;BME280;3299;42.004;24.868;2023-04-07T00:21:18;97968.44;;;8.44;42.32
6532;BME280;3299;42.004;24.868;2023-04-07T00:23:43;98020.41;;;8.63;42.30
6532;BME280;3299;42.004;24.868;2023-04-07T00:26:09;97971.63;;;8.35;42.77
6532;BME280;3299;42.004;24.868;2023-04-07T00:28:34;97985.75;;;8.42;41.95
6532;BME280;3299;42.004;24.868;2023-04-07T00:31:00;98012.38;;;8.55;41.95
6532;BME280;3299;42.004;24.868;2023-04-07T00:33:25;97987.09;;;8.35;42.25
6532;BME280;3299;42.004;24.868;2023-04-07T00:35:51;97966.91;;;8.29;42.23
6532;BME280;3299;42.004;24.868;2023-04-07T00:38:16;97998.53;;;8.56;41.52
6532;BME280;3299;42.004;24.868;2023-04-07T00:40:41;97996.19;;;8.53;42.17
6532;BME280;3299;42.004;24.868;2023-04-07T00:43:07;97936.84;;;8.16;41.24
6532;BME280;3299;42.004;24.868;2023-04-07T00:45:32;97916.44;;;8.00;41.20
6532;BME280;3299;42.004;24.868;2023-04-07T00:47:58;97920.75;;;8.00;41.35
6532;BME280;3299;42.004;24.868;2023-04-07T00:50:24;97951.09;;;8.21;40.92
6532;BME280;3299;42.004;24.868;2023-04-07T00:52:49;97991.53;;;8.46;41.05
6532;BME280;3299;42.004;24.868;2023-04-07T00:55:15;97982.00;;;8.21;41.11
6532;BME280;3299;42.004;24.868;2023-04-07T00:57:40;98009.50;;;8.47;41.33
6532;BME280;3299;42.004;24.868;2023-04-07T01:00:07;97974.19;;;8.23;41.94
6532;BME280;3299;42.004;24.868;2023-04-07T01:05:31;97943.56;;;8.18;41.14
6532;BME280;3299;42.004;24.868;2023-04-07T01:08:23;98007.59;;;8.37;42.08
6532;BME280;3299;42.004;24.868;2023-04-07T01:11:15;97925.16;;;7.85;41.85
6532;BME280;3299;42.004;24.868;2023-04-07T01:13:45;97969.41;;;8.17;42.30
6532;BME280;3299;42.004;24.868;2023-04-07T01:16:16;97980.41;;;8.33;42.19
6532;BME280;3299;42.004;24.868;2023-04-07T01:18:50;97914.75;;;7.99;41.93
6532;BME280;3299;42.004;24.868;2023-04-07T01:21:17;97935.56;;;7.96;42.20
6532;BME280;3299;42.004;24.868;2023-04-07T01:26:45;97933.13;;;8.07;41.94
6532;BME280;3299;42.004;24.868;2023-04-07T01:31:49;97928.34;;;7.89;42.05
6532;BME280;3299;42.004;24.868;2023-04-07T01:34:16;97980.91;;;8.25;42.29
6532;BME280;3299;42.004;24.868;2023-04-07T01:36:42;98021.44;;;8.48;42.29
6532;BME280;3299;42.004;24.868;2023-04-07T01:39:10;97990.28;;;8.26;42.00
6532;BME280;3299;42.004;24.868;2023-04-07T01:41:37;97954.25;;;8.12;41.73
6532;BME280;3299;42.004;24.868;2023-04-07T01:44:05;97933.31;;;7.92;41.57
6532;BME280;3299;42.004;24.868;2023-04-07T01:46:31;98028.84;;;8.40;41.64
6532;BME280;3299;42.004;24.868;2023-04-07T01:48:58;97924.84;;;7.77;42.01
6532;BME280;3299;42.004;24.868;2023-04-07T01:51:24;98012.53;;;8.27;42.20
6532;BME280;3299;42.004;24.868;2023-04-07T01:53:51;97934.53;;;7.86;41.66
6532;BME280;3299;42.004;24.868;2023-04-07T01:56:17;97935.13;;;7.90;41.82
6532;BME280;3299;42.004;24.868;2023-04-07T01:58:42;97945.22;;;7.80;41.78
6532;BME280;3299;42.004;24.868;2023-04-07T02:01:08;98015.22;;;8.26;41.95
6532;BME280;3299;42.004;24.868;2023-04-07T02:03:41;97977.22;;;8.03;42.09
6532;BME280;3299;42.004;24.868;2023-04-07T02:06:08;97923.38;;;7.73;42.16
6532;BME280;3299;42.004;24.868;2023-04-07T02:08:41;98010.91;;;8.26;41.45
6532;BME280;3299;42.004;24.868;2023-04-07T02:11:11;97923.38;;;7.73;41.73
6532;BME280;3299;42.004;24.868;2023-04-07T02:13:37;98006.66;;;8.25;41.70
6532;BME280;3299;42.004;24.868;2023-04-07T02:16:05;97977.44;;;8.12;42.33
6532;BME280;3299;42.004;24.868;2023-04-07T02:18:31;97982.94;;;8.20;41.59
6532;BME280;3299;42.004;24.868;2023-04-07T02:20:59;97932.78;;;7.87;41.40
6532;BME280;3299;42.004;24.868;2023-04-07T02:23:26;98017.41;;;8.32;40.90
6532;BME280;3299;42.004;24.868;2023-04-07T02:25:55;97939.66;;;7.86;41.03
6532;BME280;3299;42.004;24.868;2023-04-07T02:28:21;97966.41;;;7.98;41.29
6532;BME280;3299;42.004;24.868;2023-04-07T02:30:46;97964.00;;;7.95;41.07
6532;BME280;3299;42.004;24.868;2023-04-07T02:33:11;97926.34;;;7.67;41.38
6532;BME280;3299;42.004;24.868;2023-04-07T02:35:37;97970.63;;;7.99;41.07
6532;BME280;3299;42.004;24.868;2023-04-07T02:38:02;97972.88;;;8.03;40.46
6532;BME280;3299;42.004;24.868;2023-04-07T02:40:28;97981.06;;;8.10;40.51
6532;BME280;3299;42.004;24.868;2023-04-07T02:42:53;97950.81;;;7.87;40.43
6532;BME280;3299;42.004;24.868;2023-04-07T02:45:18;98021.41;;;8.23;41.02
6532;BME280;3299;42.004;24.868;2023-04-07T02:47:44;98031.72;;;8.23;41.20
6532;BME280;3299;42.004;24.868;2023-04-07T02:50:09;98038.31;;;8.27;41.28
6532;BME280;3299;42.004;24.868;2023-04-07T02:52:35;97985.84;;;8.02;40.66
6532;BME280;3299;42.004;24.868;2023-04-07T02:55:00;97990.59;;;7.95;40.98
6532;BME280;3299;42.004;24.868;2023-04-07T02:57:26;97976.25;;;7.91;40.90
6532;BME280;3299;42.004;24.868;2023-04-07T02:59:52;97945.31;;;7.79;40.47
6532;BME280;3299;42.004;24.868;2023-04-07T03:02:19;97986.38;;;7.94;40.75
6532;BME280;3299;42.004;24.868;2023-04-07T03:04:44;97984.31;;;7.73;41.43
6532;BME280;3299;42.004;24.868;2023-04-07T03:07:10;97942.75;;;7.52;41.15
6532;BME280;3299;42.004;24.868;2023-04-07T03:09:35;98035.56;;;8.16;40.70
6532;BME280;3299;42.004;24.868;2023-04-07T03:12:00;97987.69;;;7.87;40.54
6532;BME280;3299;42.004;24.868;2023-04-07T03:14:26;97931.97;;;7.60;40.98
6532;BME280;3299;42.004;24.868;2023-04-07T03:16:52;98021.78;;;8.17;41.06
6532;BME280;3299;42.004;24.868;2023-04-07T03:19:17;97986.56;;;7.91;41.10
6532;BME280;3299;42.004;24.868;2023-04-07T03:21:43;98026.00;;;8.18;41.33
6532;BME280;3299;42.004;24.868;2023-04-07T03:24:08;98022.50;;;8.19;40.58
6532;BME280;3299;42.004;24.868;2023-04-07T03:26:34;97948.19;;;7.74;40.34
6532;BME280;3299;42.004;24.868;2023-04-07T03:28:59;98035.72;;;8.27;40.31
6532;BME280;3299;42.004;24.868;2023-04-07T03:31:25;97990.59;;;7.95;40.52
6532;BME280;3299;42.004;24.868;2023-04-07T03:33:51;97953.88;;;7.79;40.21
6532;BME280;3299;42.004;24.868;2023-04-07T03:36:16;97965.44;;;7.86;40.56
6532;BME280;3299;42.004;24.868;2023-04-07T03:38:43;97991.75;;;8.04;40.47
6532;BME280;3299;42.004;24.868;2023-04-07T03:41:08;98009.09;;;8.14;40.28
6532;BME280;3299;42.004;24.868;2023-04-07T03:43:33;97999.91;;;8.10;40.15
6532;BME280;3299;42.004;24.868;2023-04-07T03:46:00;98039.78;;;8.31;40.05
6532;BME280;3299;42.004;24.868;2023-04-07T03:48:25;98032.09;;;8.17;40.45
6532;BME280;3299;42.004;24.868;2023-04-07T03:50:51;98023.09;;;8.10;40.75
6532;BME280;3299;42.004;24.868;2023-04-07T03:53:16;98027.59;;;8.21;40.50
6532;BME280;3299;42.004;24.868;2023-04-07T03:55:43;98029.38;;;8.19;40.39
6532;BME280;3299;42.004;24.868;2023-04-07T03:58:09;97947.56;;;7.71;41.34
6532;BME280;3299;42.004;24.868;2023-04-07T04:00:35;98005.31;;;7.93;42.95
6532;BME280;3299;42.004;24.868;2023-04-07T04:03:00;97956.06;;;7.59;43.47
6532;BME280;3299;42.004;24.868;2023-04-07T04:05:26;98059.31;;;8.21;43.40
6532;BME280;3299;42.004;24.868;2023-04-07T04:07:51;98017.31;;;7.80;42.55
6532;BME280;3299;42.004;24.868;2023-04-07T04:10:18;98017.31;;;7.80;42.93
6532;BME280;3299;42.004;24.868;2023-04-07T04:12:44;98068.75;;;8.08;42.01
6532;BME280;3299;42.004;24.868;2023-04-07T04:15:10;98066.31;;;8.19;40.44
6532;BME280;3299;42.004;24.868;2023-04-07T04:17:35;98030.56;;;7.88;41.19
6532;BME280;3299;42.004;24.868;2023-04-07T04:20:01;98009.03;;;7.89;40.51
6532;BME280;3299;42.004;24.868;2023-04-07T04:22:27;98053.81;;;8.13;40.43
6532;BME280;3299;42.004;24.868;2023-04-07T04:24:52;98014.44;;;7.72;42.45
6532;BME280;3299;42.004;24.868;2023-04-07T04:27:17;98046.91;;;7.87;43.41
6532;BME280;3299;42.004;24.868;2023-04-07T04:29:43;97986.91;;;7.46;41.25
6532;BME280;3299;42.004;24.868;2023-04-07T04:32:08;98060.28;;;8.06;40.66
6532;BME280;3299;42.004;24.868;2023-04-07T04:34:34;98020.84;;;7.79;40.72
6532;BME280;3299;42.004;24.868;2023-04-07T04:36:59;98000.78;;;7.70;40.57
6532;BME280;3299;42.004;24.868;2023-04-07T04:39:25;98086.56;;;8.25;40.38
6532;BME280;3299;42.004;24.868;2023-04-07T04:41:50;98082.69;;;8.18;40.63
6532;BME280;3299;42.004;24.868;2023-04-07T04:44:15;98033.84;;;7.90;40.39
6532;BME280;3299;42.004;24.868;2023-04-07T04:46:41;98065.22;;;8.09;40.69
6532;BME280;3299;42.004;24.868;2023-04-07T04:49:06;98009.66;;;7.66;41.10
6532;BME280;3299;42.004;24.868;2023-04-07T04:51:32;98028.47;;;7.81;40.89
6532;BME280;3299;42.004;24.868;2023-04-07T04:53:57;98081.06;;;8.17;41.26
6532;BME280;3299;42.004;24.868;2023-04-07T04:56:22;98058.00;;;8.02;40.90
6532;BME280;3299;42.004;24.868;2023-04-07T04:58:48;98085.22;;;8.32;40.22
6532;BME280;3299;42.004;24.868;2023-04-07T05:01:13;98006.44;;;7.89;40.42
6532;BME280;3299;42.004;24.868;2023-04-07T05:03:39;98074.59;;;8.24;41.17
6532;BME280;3299;42.004;24.868;2023-04-07T05:06:05;98112.09;;;8.42;40.50
6532;BME280;3299;42.004;24.868;2023-04-07T05:08:31;98029.03;;;7.98;40.43
6532;BME280;3299;42.004;24.868;2023-04-07T05:10:56;98017.78;;;7.99;40.36
6532;BME280;3299;42.004;24.868;2023-04-07T05:13:22;98031.75;;;8.09;40.43
6532;BME280;3299;42.004;24.868;2023-04-07T05:15:47;98096.94;;;8.50;40.12
6532;BME280;3299;42.004;24.868;2023-04-07T05:18:13;98116.56;;;8.65;40.10
6532;BME280;3299;42.004;24.868;2023-04-07T05:20:38;98119.28;;;8.76;39.42
6532;BME280;3299;42.004;24.868;2023-04-07T05:23:04;98028.94;;;8.26;39.10
6532;BME280;3299;42.004;24.868;2023-04-07T05:25:30;98025.25;;;8.16;39.37
6532;BME280;3299;42.004;24.868;2023-04-07T05:27:57;98031.44;;;8.14;39.98
6532;BME280;3299;42.004;24.868;2023-04-07T05:30:23;98027.75;;;8.18;39.12
6532;BME280;3299;42.004;24.868;2023-04-07T05:32:49;98076.31;;;8.50;39.36
6532;BME280;3299;42.004;24.868;2023-04-07T05:35:15;98074.84;;;8.46;39.66
6532;BME280;3299;42.004;24.868;2023-04-07T05:37:40;98026.56;;;8.23;39.04
6532;BME280;3299;42.004;24.868;2023-04-07T05:40:06;98039.06;;;8.29;38.76
6532;BME280;3299;42.004;24.868;2023-04-07T05:42:32;98139.19;;;8.87;39.47
6532;BME280;3299;42.004;24.868;2023-04-07T05:44:57;98122.38;;;8.81;39.75
6532;BME280;3299;42.004;24.868;2023-04-07T05:47:23;98115.53;;;8.80;38.38
6532;BME280;3299;42.004;24.868;2023-04-07T05:49:48;98029.38;;;8.33;39.25
6532;BME280;3299;42.004;24.868;2023-04-07T05:52:14;98081.50;;;8.63;39.69
6532;BME280;3299;42.004;24.868;2023-04-07T05:54:39;98108.94;;;8.89;38.90
6532;BME280;3299;42.004;24.868;2023-04-07T05:57:06;98091.63;;;8.78;38.53
6532;BME280;3299;42.004;24.868;2023-04-07T05:59:32;98092.53;;;8.77;38.85
6532;BME280;3299;42.004;24.868;2023-04-07T06:01:57;98128.78;;;9.01;39.04
6532;BME280;3299;42.004;24.868;2023-04-07T06:04:23;98124.63;;;8.98;39.00
6532;BME280;3299;42.004;24.868;2023-04-07T06:06:48;98124.97;;;8.94;38.86
6532;BME280;3299;42.004;24.868;2023-04-07T06:09:14;98072.41;;;8.70;39.17
6532;BME280;3299;42.004;24.868;2023-04-07T06:11:40;98092.03;;;8.85;39.31
6532;BME280;3299;42.004;24.868;2023-04-07T06:14:05;98070.88;;;8.67;39.65
6532;BME280;3299;42.004;24.868;2023-04-07T06:16:31;98082.63;;;8.84;38.53
6532;BME280;3299;42.004;24.868;2023-04-07T06:18:56;98135.81;;;9.11;39.12
6532;BME280;3299;42.004;24.868;2023-04-07T06:21:22;98102.38;;;9.10;39.00
6532;BME280;3299;42.004;24.868;2023-04-07T06:23:48;98107.72;;;9.07;38.52
6532;BME280;3299;42.004;24.868;2023-04-07T06:26:13;98047.16;;;8.75;38.79
6532;BME280;3299;42.004;24.868;2023-04-07T06:28:38;98115.38;;;9.21;38.54
6532;BME280;3299;42.004;24.868;2023-04-07T06:31:04;98118.25;;;9.29;38.72
6532;BME280;3299;42.004;24.868;2023-04-07T06:33:30;98122.47;;;9.30;38.67
6532;BME280;3299;42.004;24.868;2023-04-07T06:35:56;98064.38;;;8.99;38.99
6532;BME280;3299;42.004;24.868;2023-04-07T06:38:21;98148.91;;;9.58;38.55
6532;BME280;3299;42.004;24.868;2023-04-07T06:40:47;98152.53;;;9.56;37.85
6532;BME280;3299;42.004;24.868;2023-04-07T06:43:12;98140.03;;;9.37;38.26
6532;BME280;3299;42.004;24.868;2023-04-07T06:45:38;98136.00;;;9.33;38.52
6532;BME280;3299;42.004;24.868;2023-04-07T06:48:03;98076.34;;;9.00;38.54
6532;BME280;3299;42.004;24.868;2023-04-07T06:50:29;98144.38;;;9.49;38.17
6532;BME280;3299;42.004;24.868;2023-04-07T06:52:57;98147.47;;;9.54;38.62
6532;BME280;3299;42.004;24.868;2023-04-07T06:55:22;98072.75;;;8.90;38.66
6532;BME280;3299;42.004;24.868;2023-04-07T06:57:48;98075.03;;;8.82;38.85
6532;BME280;3299;42.004;24.868;2023-04-07T07:00:16;98066.22;;;8.97;39.57
6532;BME280;3299;42.004;24.868;2023-04-07T07:02:42;98079.56;;;9.16;39.04
6532;BME280;3299;42.004;24.868;2023-04-07T07:05:07;98152.41;;;9.69;38.09
6532;BME280;3299;42.004;24.868;2023-04-07T07:07:33;98103.78;;;9.51;38.44
6532;BME280;3299;42.004;24.868;2023-04-07T07:09:58;98166.19;;;9.93;37.72
6532;BME280;3299;42.004;24.868;2023-04-07T07:12:24;98146.09;;;9.86;38.17
6532;BME280;3299;42.004;24.868;2023-04-07T07:14:49;98163.69;;;10.17;38.39
6532;BME280;3299;42.004;24.868;2023-04-07T07:17:14;98158.50;;;10.29;37.75
6532;BME280;3299;42.004;24.868;2023-04-07T07:19:40;98121.28;;;10.19;37.39
6532;BME280;3299;42.004;24.868;2023-04-07T07:22:05;98128.22;;;10.19;36.60
6532;BME280;3299;42.004;24.868;2023-04-07T07:24:31;98132.50;;;10.31;37.32
6532;BME280;3299;42.004;24.868;2023-04-07T07:26:58;98083.75;;;10.14;37.21
6532;BME280;3299;42.004;24.868;2023-04-07T07:29:24;98138.94;;;10.49;36.66
6532;BME280;3299;42.004;24.868;2023-04-07T07:31:50;98150.72;;;10.76;36.91
6532;BME280;3299;42.004;24.868;2023-04-07T07:34:15;98088.34;;;10.34;36.56
6532;BME280;3299;42.004;24.868;2023-04-07T07:36:41;98119.00;;;10.62;36.99
6532;BME280;3299;42.004;24.868;2023-04-07T07:39:06;98109.31;;;10.53;36.31
6532;BME280;3299;42.004;24.868;2023-04-07T07:41:32;98095.84;;;10.37;36.70
6532;BME280;3299;42.004;24.868;2023-04-07T07:43:57;98122.06;;;10.56;36.56
6532;BME280;3299;42.004;24.868;2023-04-07T07:46:22;98105.75;;;10.43;36.50
6532;BME280;3299;42.004;24.868;2023-04-07T07:48:50;98135.19;;;10.53;36.47
6532;BME280;3299;42.004;24.868;2023-04-07T07:51:15;98108.91;;;10.35;36.38
6532;BME280;3299;42.004;24.868;2023-04-07T07:53:42;98163.03;;;10.73;36.52
6532;BME280;3299;42.004;24.868;2023-04-07T07:56:08;98167.03;;;10.77;36.43
6532;BME280;3299;42.004;24.868;2023-04-07T07:58:33;98138.31;;;10.45;36.42
6532;BME280;3299;42.004;24.868;2023-04-07T08:00:59;98119.72;;;10.40;35.45
6532;BME280;3299;42.004;24.868;2023-04-07T08:03:24;98168.78;;;10.65;35.90
6532;BME280;3299;42.004;24.868;2023-04-07T08:05:50;98081.09;;;10.03;36.71
6532;BME280;3299;42.004;24.868;2023-04-07T08:08:15;98164.69;;;10.50;36.42
6532;BME280;3299;42.004;24.868;2023-04-07T08:10:41;98116.97;;;10.31;36.19
6532;BME280;3299;42.004;24.868;2023-04-07T08:13:06;98153.31;;;10.53;36.13
6532;BME280;3299;42.004;24.868;2023-04-07T08:15:32;98097.34;;;10.28;36.08
6532;BME280;3299;42.004;24.868;2023-04-07T08:17:57;98130.78;;;10.66;36.04
6532;BME280;3299;42.004;24.868;2023-04-07T08:20:25;98084.41;;;10.52;36.07
6532;BME280;3299;42.004;24.868;2023-04-07T08:22:50;98102.34;;;10.77;35.68
6532;BME280;3299;42.004;24.868;2023-04-07T08:25:16;98119.81;;;10.97;35.38
6532;BME280;3299;42.004;24.868;2023-04-07T08:27:41;98146.56;;;11.19;35.19
6532;BME280;3299;42.004;24.868;2023-04-07T08:30:07;98103.34;;;10.98;35.66
6532;BME280;3299;42.004;24.868;2023-04-07T08:32:34;98156.25;;;11.39;35.60
6532;BME280;3299;42.004;24.868;2023-04-07T08:35:00;98085.09;;;11.10;35.12
6532;BME280;3299;42.004;24.868;2023-04-07T08:37:25;98078.06;;;11.12;35.06
6532;BME280;3299;42.004;24.868;2023-04-07T08:39:51;98160.78;;;11.70;35.73
6532;BME280;3299;42.004;24.868;2023-04-07T08:42:17;98166.06;;;11.91;35.21
6532;BME280;3299;42.004;24.868;2023-04-07T08:44:44;98158.78;;;11.74;35.35
6532;BME280;3299;42.004;24.868;2023-04-07T08:47:12;98100.78;;;11.31;35.98
6532;BME280;3299;42.004;24.868;2023-04-07T08:49:43;98149.41;;;11.27;36.27
6532;BME280;3299;42.004;24.868;2023-04-07T08:52:10;98144.34;;;11.15;36.66
6532;BME280;3299;42.004;24.868;2023-04-07T08:54:37;98079.94;;;10.54;37.59
6532;BME280;3299;42.004;24.868;2023-04-07T08:57:02;98064.59;;;10.40;37.81
6532;BME280;3299;42.004;24.868;2023-04-07T08:59:28;98145.41;;;10.78;37.67
6532;BME280;3299;42.004;24.868;2023-04-07T09:01:55;98061.47;;;10.24;37.94
6532;BME280;3299;42.004;24.868;2023-04-07T09:04:21;98136.66;;;11.02;37.20
6532;BME280;3299;42.004;24.868;2023-04-07T09:06:48;98133.53;;;11.32;37.13
6532;BME280;3299;42.004;24.868;2023-04-07T09:09:13;98116.59;;;11.50;36.82
6532;BME280;3299;42.004;24.868;2023-04-07T09:11:39;98106.69;;;11.44;37.03
6532;BME280;3299;42.004;24.868;2023-04-07T09:14:05;98153.13;;;11.91;36.85
6532;BME280;3299;42.004;24.868;2023-04-07T09:16:31;98108.78;;;11.83;35.98
6532;BME280;3299;42.004;24.868;2023-04-07T09:18:58;98108.75;;;12.05;36.08
6532;BME280;3299;42.004;24.868;2023-04-07T09:21:24;98146.22;;;12.12;35.68
6532;BME280;3299;42.004;24.868;2023-04-07T09:23:49;98140.63;;;11.96;36.23
6532;BME280;3299;42.004;24.868;2023-04-07T09:28:54;98162.06;;;11.87;36.89
6532;BME280;3299;42.004;24.868;2023-04-07T09:31:21;98155.56;;;12.03;37.28
6532;BME280;3299;42.004;24.868;2023-04-07T09:33:49;98159.34;;;11.99;35.87
6532;BME280;3299;42.004;24.868;2023-04-07T09:36:15;98057.94;;;11.38;36.39
6532;BME280;3299;42.004;24.868;2023-04-07T09:38:42;98138.47;;;11.57;36.95
6532;BME280;3299;42.004;24.868;2023-04-07T09:41:10;98153.72;;;11.72;36.43
6532;BME280;3299;42.004;24.868;2023-04-07T09:43:40;98064.50;;;11.31;36.60
6532;BME280;3299;42.004;24.868;2023-04-07T09:46:10;98152.75;;;12.06;37.05
6532;BME280;3299;42.004;24.868;2023-04-07T09:48:36;98137.28;;;12.16;36.42
6532;BME280;3299;42.004;24.868;2023-04-07T09:51:07;98105.34;;;12.15;36.62
6532;BME280;3299;42.004;24.868;2023-04-07T09:53:53;98126.69;;;12.50;36.29
6532;BME280;3299;42.004;24.868;2023-04-07T09:56:19;98150.97;;;12.81;36.44
6532;BME280;3299;42.004;24.868;2023-04-07T09:58:47;98103.59;;;12.68;36.36
6532;BME280;3299;42.004;24.868;2023-04-07T10:01:16;98066.34;;;12.58;36.28
6532;BME280;3299;42.004;24.868;2023-04-07T10:03:42;98149.81;;;13.26;36.25
6532;BME280;3299;42.004;24.868;2023-04-07T10:06:08;98101.34;;;13.15;35.97
6532;BME280;3299;42.004;24.868;2023-04-07T10:08:37;98065.50;;;12.89;34.95
6532;BME280;3299;42.004;24.868;2023-04-07T10:11:04;98117.03;;;13.34;35.17
6532;BME280;3299;42.004;24.868;2023-04-07T10:13:32;98140.19;;;13.67;35.41
6532;BME280;3299;42.004;24.868;2023-04-07T10:15:58;98072.22;;;13.12;34.83
6532;BME280;3299;42.004;24.868;2023-04-07T10:18:28;98145.22;;;13.39;35.53
6532;BME280;3299;42.004;24.868;2023-04-07T10:20:59;98103.72;;;12.87;35.64
6532;BME280;3299;42.004;24.868;2023-04-07T10:26:15;98135.56;;;13.00;36.22
6532;BME280;3299;42.004;24.868;2023-04-07T10:28:42;98057.03;;;12.55;36.22
6532;BME280;3299;42.004;24.868;2023-04-07T10:31:10;98143.53;;;13.08;36.97
6532;BME280;3299;42.004;24.868;2023-04-07T10:33:51;98054.34;;;12.57;37.18
6532;BME280;3299;42.004;24.868;2023-04-07T10:36:18;98062.69;;;12.81;36.46
6532;BME280;3299;42.004;24.868;2023-04-07T10:43:59;98121.47;;;13.23;36.79
6532;BME280;3299;42.004;24.868;2023-04-07T10:46:24;98145.44;;;13.47;37.36
6532;BME280;3299;42.004;24.868;2023-04-07T10:49:07;98075.59;;;13.33;37.05
6532;BME280;3299;42.004;24.868;2023-04-07T10:51:33;98105.84;;;13.64;36.56
6532;BME280;3299;42.004;24.868;2023-04-07T10:54:21;98143.16;;;13.93;36.13
6532;BME280;3299;42.004;24.868;2023-04-07T10:59:31;98055.66;;;13.92;35.55
6532;BME280;3299;42.004;24.868;2023-04-07T11:04:43;98136.56;;;14.95;35.65
6532;BME280;3299;42.004;24.868;2023-04-07T11:07:09;98114.22;;;14.92;36.08
6532;BME280;3299;42.004;24.868;2023-04-07T11:09:36;98126.59;;;14.81;35.26
6532;BME280;3299;42.004;24.868;2023-04-07T11:12:01;98113.94;;;15.05;34.46
6532;BME280;3299;42.004;24.868;2023-04-07T11:14:29;98117.66;;;15.02;35.50
6532;BME280;3299;42.004;24.868;2023-04-07T11:16:55;98135.16;;;15.29;34.71
6532;BME280;3299;42.004;24.868;2023-04-07T11:19:21;98040.59;;;15.00;35.44
6532;BME280;3299;42.004;24.868;2023-04-07T11:21:47;98080.50;;;15.56;34.25
6532;BME280;3299;42.004;24.868;2023-04-07T11:24:31;98131.84;;;16.09;33.78
6532;BME280;3299;42.004;24.868;2023-04-07T11:26:56;98131.44;;;16.04;34.60
6532;BME280;3299;42.004;24.868;2023-04-07T11:29:32;98078.66;;;15.66;34.73
6532;BME280;3299;42.004;24.868;2023-04-07T11:32:01;98100.72;;;15.98;34.80
6532;BME280;3299;42.004;24.868;2023-04-07T11:34:31;98118.09;;;16.34;34.84
6532;BME280;3299;42.004;24.868;2023-04-07T11:36:57;98103.78;;;15.94;35.39
6532;BME280;3299;42.004;24.868;2023-04-07T11:39:26;98100.72;;;15.98;34.85
6532;BME280;3299;42.004;24.868;2023-04-07T11:41:52;98130.59;;;16.31;34.88
6532;BME280;3299;42.004;24.868;2023-04-07T11:44:18;98049.91;;;15.48;34.83
6532;BME280;3299;42.004;24.868;2023-04-07T11:47:00;98081.03;;;15.04;35.21
6532;BME280;3299;42.004;24.868;2023-04-07T11:49:29;98045.69;;;14.92;36.65
6532;BME280;3299;42.004;24.868;2023-04-07T11:52:05;98075.38;;;15.18;36.21
6532;BME280;3299;42.004;24.868;2023-04-07T11:54:44;98106.19;;;15.32;36.03
6532;BME280;3299;42.004;24.868;2023-04-07T11:57:27;98106.66;;;15.18;36.35
6532;BME280;3299;42.004;24.868;2023-04-07T12:00:13;98116.25;;;15.08;37.08
6532;BME280;3299;42.004;24.868;2023-04-07T12:02:40;98075.34;;;14.53;37.14
6532;BME280;3299;42.004;24.868;2023-04-07T12:05:06;98114.78;;;14.86;37.26
6532;BME280;3299;42.004;24.868;2023-04-07T12:07:35;98067.78;;;14.59;37.99
6532;BME280;3299;42.004;24.868;2023-04-07T12:10:17;98048.44;;;14.62;37.87
6532;BME280;3299;42.004;24.868;2023-04-07T12:12:44;98104.50;;;15.04;37.36
6532;BME280;3299;42.004;24.868;2023-04-07T12:15:10;98047.91;;;14.68;37.26
6532;BME280;3299;42.004;24.868;2023-04-07T12:17:36;98099.28;;;15.04;37.62
6532;BME280;3299;42.004;24.868;2023-04-07T12:20:01;98103.25;;;14.89;39.10
6532;BME280;3299;42.004;24.868;2023-04-07T12:22:27;98038.03;;;14.81;38.12
6532;BME280;3299;42.004;24.868;2023-04-07T12:24:52;98051.06;;;15.27;37.53
6532;BME280;3299;42.004;24.868;2023-04-07T12:27:18;98111.31;;;15.70;37.83
6532;BME280;3299;42.004;24.868;2023-04-07T12:29:43;98104.44;;;15.69;37.47
6532;BME280;3299;42.004;24.868;2023-04-07T12:32:08;98046.88;;;15.53;37.80
6532;BME280;3299;42.004;24.868;2023-04-07T12:34:34;98073.09;;;15.78;36.75
6532;BME280;3299;42.004;24.868;2023-04-07T12:37:01;98106.31;;;15.86;37.17
6532;BME280;3299;42.004;24.868;2023-04-07T12:39:27;98084.06;;;15.82;37.52
6532;BME280;3299;42.004;24.868;2023-04-07T12:41:52;98100.56;;;16.00;37.20
6532;BME280;3299;42.004;24.868;2023-04-07T12:44:18;98097.34;;;16.33;36.61
6532;BME280;3299;42.004;24.868;2023-04-07T12:46:44;98084.84;;;16.54;37.73
6532;BME280;3299;42.004;24.868;2023-04-07T12:49:09;98027.94;;;16.40;36.62
6532;BME280;3299;42.004;24.868;2023-04-07T12:51:35;98093.69;;;16.96;36.32
6532;BME280;3299;42.004;24.868;2023-04-07T12:54:01;98088.66;;;17.02;35.94
6532;BME280;3299;42.004;24.868;2023-04-07T12:56:28;98046.34;;;16.99;35.55
6532;BME280;3299;42.004;24.868;2023-04-07T12:58:54;98032.59;;;16.97;36.03
6532;BME280;3299;42.004;24.868;2023-04-07T13:01:20;98049.00;;;17.07;35.69
6532;BME280;3299;42.004;24.868;2023-04-07T13:03:45;98017.91;;;16.96;35.97
6532;BME280;3299;42.004;24.868;2023-04-07T13:06:11;98097.78;;;17.24;35.38
6532;BME280;3299;42.004;24.868;2023-04-07T13:08:37;98088.03;;;16.83;36.16
6532;BME280;3299;42.004;24.868;2023-04-07T13:11:03;98054.00;;;16.05;36.96
6532;BME280;3299;42.004;24.868;2023-04-07T13:13:30;98042.56;;;16.06;37.37
6532;BME280;3299;42.004;24.868;2023-04-07T13:15:55;98057.44;;;16.23;37.91
6532;BME280;3299;42.004;24.868;2023-04-07T13:18:21;97995.28;;;15.91;37.48
6532;BME280;3299;42.004;24.868;2023-04-07T13:20:46;98047.25;;;16.47;37.52
6532;BME280;3299;42.004;24.868;2023-04-07T13:23:12;98078.31;;;16.93;37.01
6532;BME280;3299;42.004;24.868;2023-04-07T13:25:37;98084.47;;;16.84;37.71
6532;BME280;3299;42.004;24.868;2023-04-07T13:28:03;98064.94;;;16.96;36.88
6532;BME280;3299;42.004;24.868;2023-04-07T13:30:30;98033.63;;;17.04;36.62
6532;BME280;3299;42.004;24.868;2023-04-07T13:32:55;98077.38;;;16.59;37.28
6532;BME280;3299;42.004;24.868;2023-04-07T13:35:21;98071.06;;;17.04;37.35
6532;BME280;3299;42.004;24.868;2023-04-07T13:37:46;98077.09;;;17.05;37.47
6532;BME280;3299;42.004;24.868;2023-04-07T13:40:12;98080.03;;;17.27;37.04